AUA8PM LKPR-LOWS
Flight info
| Callsign | AUA8PM |
|---|---|
| Flight time | 0h 38m |
| Altitude | 20000 |
| Route | DOBEN DCT NIRGO T108 OSTES T700 BADIT BADIT2R |
| Aircraft | DH8D/M-SDE2E3FGRY/H |
Departure
| Time | 2026-05-07 19:43 |
|---|---|
| Airport | Václav Havel Airport Prague (LKPR) |
Arrival
| Time | 2026-05-07 20:21 |
|---|---|
| Airport | Salzburg Airport (LOWS) |
| Time | Latitude | Longitude | Altitude | Speed | Heading |
|---|---|---|---|---|---|
| 2026-05-07 19:18 | 50.10725 | 14.25783 | 1180 ft | 0 kts | 304° |
| 2026-05-07 19:35 | 50.10739 | 14.25753 | 1179 ft | 4 kts | 304° |
| 2026-05-07 19:35 | 50.10755 | 14.25714 | 1179 ft | 4 kts | 294° |
| 2026-05-07 19:35 | 50.10729 | 14.25658 | 1180 ft | 7 kts | 214° |
| 2026-05-07 19:36 | 50.10683 | 14.25616 | 1180 ft | 8 kts | 194° |
| 2026-05-07 19:36 | 50.10626 | 14.25674 | 1182 ft | 12 kts | 121° |
| 2026-05-07 19:36 | 50.10577 | 14.25801 | 1184 ft | 15 kts | 121° |
| 2026-05-07 19:36 | 50.10515 | 14.25948 | 1186 ft | 17 kts | 124° |
| 2026-05-07 19:37 | 50.10439 | 14.26102 | 1190 ft | 18 kts | 127° |
| 2026-05-07 19:37 | 50.10361 | 14.26266 | 1194 ft | 19 kts | 126° |
| 2026-05-07 19:37 | 50.10281 | 14.26431 | 1199 ft | 19 kts | 127° |
| 2026-05-07 19:37 | 50.10197 | 14.26604 | 1203 ft | 20 kts | 127° |
| 2026-05-07 19:38 | 50.10111 | 14.26781 | 1206 ft | 21 kts | 126° |
| 2026-05-07 19:38 | 50.10022 | 14.26965 | 1209 ft | 19 kts | 127° |
| 2026-05-07 19:38 | 50.09943 | 14.27133 | 1209 ft | 18 kts | 127° |
| 2026-05-07 19:38 | 50.09862 | 14.27298 | 1210 ft | 17 kts | 129° |
| 2026-05-07 19:39 | 50.09774 | 14.27435 | 1212 ft | 19 kts | 136° |
| 2026-05-07 19:39 | 50.09687 | 14.27569 | 1214 ft | 14 kts | 135° |
| 2026-05-07 19:39 | 50.09619 | 14.27643 | 1215 ft | 11 kts | 181° |
| 2026-05-07 19:39 | 50.09547 | 14.27572 | 1218 ft | 12 kts | 217° |
| 2026-05-07 19:40 | 50.09489 | 14.27506 | 1223 ft | 4 kts | 217° |
| 2026-05-07 19:41 | 50.09475 | 14.27490 | 1223 ft | 10 kts | 216° |
| 2026-05-07 19:41 | 50.09420 | 14.27410 | 1224 ft | 8 kts | 259° |
| 2026-05-07 19:41 | 50.09430 | 14.27372 | 1224 ft | 0 kts | 307° |
| 2026-05-07 19:42 | 50.09441 | 14.27349 | 1224 ft | 21 kts | 307° |
| 2026-05-07 19:42 | 50.09732 | 14.26749 | 1219 ft | 110 kts | 307° |
| 2026-05-07 19:42 | 50.10321 | 14.25538 | 1239 ft | 157 kts | 307° |
| 2026-05-07 19:43 | 50.11005 | 14.24137 | 1730 ft | 166 kts | 307° |
| 2026-05-07 19:43 | 50.11718 | 14.22704 | 2374 ft | 170 kts | 308° |
| 2026-05-07 19:43 | 50.12443 | 14.21230 | 3053 ft | 174 kts | 307° |
| 2026-05-07 19:43 | 50.13173 | 14.19722 | 3657 ft | 175 kts | 307° |
| 2026-05-07 19:44 | 50.13900 | 14.18209 | 4179 ft | 176 kts | 307° |
| 2026-05-07 19:44 | 50.14637 | 14.16676 | 4655 ft | 182 kts | 306° |
| 2026-05-07 19:44 | 50.15407 | 14.15072 | 5172 ft | 183 kts | 306° |
| 2026-05-07 19:44 | 50.16153 | 14.13519 | 5798 ft | 178 kts | 306° |
| 2026-05-07 19:45 | 50.16886 | 14.11999 | 6361 ft | 177 kts | 306° |
| 2026-05-07 19:45 | 50.17629 | 14.10457 | 6911 ft | 176 kts | 305° |
| 2026-05-07 19:45 | 50.18358 | 14.08941 | 7435 ft | 176 kts | 305° |
| 2026-05-07 19:45 | 50.19021 | 14.07349 | 7924 ft | 175 kts | 287° |
| 2026-05-07 19:46 | 50.18894 | 14.05560 | 8333 ft | 174 kts | 235° |
| 2026-05-07 19:46 | 50.18010 | 14.04230 | 8803 ft | 176 kts | 221° |
| 2026-05-07 19:46 | 50.17047 | 14.03032 | 9309 ft | 178 kts | 221° |
| 2026-05-07 19:46 | 50.16071 | 14.01836 | 9704 ft | 187 kts | 220° |
| 2026-05-07 19:47 | 50.14988 | 14.00531 | 9935 ft | 203 kts | 220° |
| 2026-05-07 19:47 | 50.13818 | 13.99149 | 10300 ft | 212 kts | 219° |
| 2026-05-07 19:47 | 50.12576 | 13.97790 | 10712 ft | 220 kts | 209° |
| 2026-05-07 19:47 | 50.11052 | 13.97334 | 11112 ft | 229 kts | 182° |
| 2026-05-07 19:48 | 50.09436 | 13.97415 | 11593 ft | 233 kts | 181° |
| 2026-05-07 19:48 | 50.07802 | 13.97507 | 12069 ft | 236 kts | 181° |
| 2026-05-07 19:48 | 50.06157 | 13.97599 | 12548 ft | 239 kts | 180° |
| 2026-05-07 19:48 | 50.04495 | 13.97688 | 13034 ft | 241 kts | 180° |
| 2026-05-07 19:49 | 50.02809 | 13.97775 | 13542 ft | 241 kts | 180° |
| 2026-05-07 19:49 | 50.01115 | 13.97860 | 14043 ft | 242 kts | 181° |
| 2026-05-07 19:49 | 49.99452 | 13.97941 | 14526 ft | 242 kts | 181° |
| 2026-05-07 19:49 | 49.97746 | 13.97910 | 14999 ft | 239 kts | 193° |
| 2026-05-07 19:50 | 49.96330 | 13.96713 | 15358 ft | 231 kts | 230° |
| 2026-05-07 19:50 | 49.95343 | 13.94735 | 15790 ft | 230 kts | 235° |
| 2026-05-07 19:50 | 49.94397 | 13.92724 | 16215 ft | 230 kts | 236° |
| 2026-05-07 19:50 | 49.93449 | 13.90694 | 16629 ft | 230 kts | 236° |
| 2026-05-07 19:51 | 49.92506 | 13.88671 | 17021 ft | 229 kts | 236° |
| 2026-05-07 19:51 | 49.91570 | 13.86659 | 17420 ft | 228 kts | 237° |
| 2026-05-07 19:51 | 49.90639 | 13.84658 | 17797 ft | 228 kts | 237° |
| 2026-05-07 19:51 | 49.89705 | 13.82650 | 18160 ft | 228 kts | 237° |
| 2026-05-07 19:52 | 49.88809 | 13.80722 | 18475 ft | 227 kts | 237° |
| 2026-05-07 19:52 | 49.87882 | 13.78729 | 18802 ft | 227 kts | 237° |
| 2026-05-07 19:52 | 49.86955 | 13.76739 | 19125 ft | 227 kts | 237° |
| 2026-05-07 19:52 | 49.86032 | 13.74754 | 19426 ft | 228 kts | 237° |
| 2026-05-07 19:53 | 49.85105 | 13.72764 | 19725 ft | 227 kts | 237° |
| 2026-05-07 19:53 | 49.84176 | 13.70771 | 19943 ft | 232 kts | 237° |
| 2026-05-07 19:53 | 49.83205 | 13.68686 | 20010 ft | 242 kts | 237° |
| 2026-05-07 19:53 | 49.82207 | 13.66546 | 20035 ft | 253 kts | 237° |
| 2026-05-07 19:54 | 49.81152 | 13.64288 | 20038 ft | 264 kts | 237° |
| 2026-05-07 19:54 | 49.80047 | 13.61927 | 20043 ft | 275 kts | 237° |
| 2026-05-07 19:54 | 49.78899 | 13.59479 | 20053 ft | 285 kts | 237° |
| 2026-05-07 19:54 | 49.77697 | 13.56958 | 20042 ft | 295 kts | 234° |
| 2026-05-07 19:55 | 49.76122 | 13.54836 | 20057 ft | 307 kts | 217° |
| 2026-05-07 19:55 | 49.74301 | 13.53055 | 20053 ft | 315 kts | 215° |
| 2026-05-07 19:55 | 49.72398 | 13.51226 | 20043 ft | 321 kts | 215° |
| 2026-05-07 19:55 | 49.70490 | 13.49389 | 20046 ft | 327 kts | 215° |
| 2026-05-07 19:56 | 49.68573 | 13.47537 | 20049 ft | 331 kts | 215° |
| 2026-05-07 19:56 | 49.66620 | 13.45646 | 20045 ft | 334 kts | 215° |
| 2026-05-07 19:56 | 49.64640 | 13.43728 | 20049 ft | 338 kts | 215° |
| 2026-05-07 19:56 | 49.62639 | 13.41787 | 20052 ft | 339 kts | 215° |
| 2026-05-07 19:57 | 49.60654 | 13.39863 | 20054 ft | 341 kts | 215° |
| 2026-05-07 19:57 | 49.58646 | 13.37915 | 20053 ft | 341 kts | 215° |
| 2026-05-07 19:57 | 49.56629 | 13.35962 | 20048 ft | 343 kts | 215° |
| 2026-05-07 19:57 | 49.54601 | 13.33998 | 20054 ft | 343 kts | 214° |
| 2026-05-07 19:58 | 49.52583 | 13.32040 | 20055 ft | 342 kts | 215° |
| 2026-05-07 19:58 | 49.50563 | 13.30085 | 20048 ft | 343 kts | 215° |
| 2026-05-07 19:58 | 49.48535 | 13.28125 | 20053 ft | 344 kts | 214° |
| 2026-05-07 19:58 | 49.46515 | 13.26174 | 20049 ft | 345 kts | 215° |
| 2026-05-07 19:59 | 49.44462 | 13.24192 | 20045 ft | 345 kts | 215° |
| 2026-05-07 19:59 | 49.42440 | 13.22243 | 20046 ft | 345 kts | 215° |
| 2026-05-07 19:59 | 49.40385 | 13.20262 | 20039 ft | 346 kts | 215° |
| 2026-05-07 19:59 | 49.38374 | 13.18326 | 20041 ft | 346 kts | 215° |
| 2026-05-07 20:00 | 49.36326 | 13.16357 | 20043 ft | 346 kts | 215° |
| 2026-05-07 20:00 | 49.34282 | 13.14393 | 20044 ft | 346 kts | 215° |
| 2026-05-07 20:00 | 49.32214 | 13.12555 | 20041 ft | 348 kts | 210° |
| 2026-05-07 20:00 | 49.30025 | 13.10908 | 20043 ft | 348 kts | 208° |
| 2026-05-07 20:01 | 49.27840 | 13.09291 | 20045 ft | 348 kts | 208° |
| 2026-05-07 20:01 | 49.25674 | 13.07695 | 20045 ft | 349 kts | 208° |
| 2026-05-07 20:01 | 49.23489 | 13.06091 | 20045 ft | 348 kts | 208° |
| 2026-05-07 20:01 | 49.21308 | 13.04476 | 20046 ft | 348 kts | 209° |
| 2026-05-07 20:02 | 49.19138 | 13.02881 | 20049 ft | 348 kts | 208° |
| 2026-05-07 20:02 | 49.16951 | 13.01295 | 20048 ft | 348 kts | 208° |
| 2026-05-07 20:02 | 49.14749 | 12.99700 | 20049 ft | 348 kts | 208° |
| 2026-05-07 20:02 | 49.12554 | 12.98110 | 20051 ft | 348 kts | 208° |
| 2026-05-07 20:03 | 49.10378 | 12.96535 | 20051 ft | 348 kts | 208° |
| 2026-05-07 20:03 | 49.08190 | 12.94946 | 20050 ft | 348 kts | 208° |
| 2026-05-07 20:03 | 49.05989 | 12.93345 | 20050 ft | 347 kts | 208° |
| 2026-05-07 20:03 | 49.03836 | 12.91780 | 20053 ft | 347 kts | 208° |
| 2026-05-07 20:04 | 49.01638 | 12.90185 | 20053 ft | 346 kts | 209° |
| 2026-05-07 20:04 | 48.99471 | 12.88611 | 20048 ft | 346 kts | 208° |
| 2026-05-07 20:04 | 48.97310 | 12.87044 | 20051 ft | 346 kts | 209° |
| 2026-05-07 20:04 | 48.95124 | 12.85464 | 20052 ft | 346 kts | 208° |
| 2026-05-07 20:05 | 48.92943 | 12.83890 | 20051 ft | 346 kts | 208° |
| 2026-05-07 20:05 | 48.90777 | 12.82333 | 20051 ft | 345 kts | 208° |
| 2026-05-07 20:05 | 48.88673 | 12.80821 | 20051 ft | 344 kts | 208° |
| 2026-05-07 20:05 | 48.86586 | 12.79325 | 20055 ft | 342 kts | 208° |
| 2026-05-07 20:06 | 48.84395 | 12.77756 | 20056 ft | 342 kts | 208° |
| 2026-05-07 20:06 | 48.82272 | 12.76237 | 20066 ft | 342 kts | 208° |
| 2026-05-07 20:06 | 48.80076 | 12.74669 | 19782 ft | 348 kts | 208° |
| 2026-05-07 20:06 | 48.77907 | 12.73126 | 19403 ft | 350 kts | 208° |
| 2026-05-07 20:07 | 48.75681 | 12.71544 | 18983 ft | 352 kts | 208° |
| 2026-05-07 20:07 | 48.73473 | 12.69967 | 18562 ft | 353 kts | 208° |
| 2026-05-07 20:07 | 48.71204 | 12.68538 | 18053 ft | 358 kts | 199° |
| 2026-05-07 20:07 | 48.68704 | 12.68359 | 17603 ft | 364 kts | 177° |
| 2026-05-07 20:08 | 48.66209 | 12.68955 | 17141 ft | 365 kts | 174° |
| 2026-05-07 20:08 | 48.63702 | 12.69607 | 16694 ft | 359 kts | 173° |
| 2026-05-07 20:08 | 48.61266 | 12.70256 | 16261 ft | 351 kts | 173° |
| 2026-05-07 20:08 | 48.58888 | 12.70872 | 15837 ft | 345 kts | 174° |
| 2026-05-07 20:09 | 48.56541 | 12.71392 | 15420 ft | 338 kts | 175° |
| 2026-05-07 20:09 | 48.54228 | 12.71883 | 15016 ft | 333 kts | 175° |
| 2026-05-07 20:09 | 48.51930 | 12.72370 | 14616 ft | 328 kts | 175° |
| 2026-05-07 20:10 | 48.47471 | 12.73316 | 13834 ft | 321 kts | 175° |
| 2026-05-07 20:10 | 48.45247 | 12.73789 | 13439 ft | 318 kts | 175° |
| 2026-05-07 20:10 | 48.43046 | 12.74256 | 13053 ft | 315 kts | 175° |
| 2026-05-07 20:10 | 48.40888 | 12.74715 | 12676 ft | 313 kts | 175° |
| 2026-05-07 20:11 | 48.38734 | 12.75286 | 12295 ft | 311 kts | 171° |
| 2026-05-07 20:11 | 48.36608 | 12.76053 | 11915 ft | 310 kts | 169° |
| 2026-05-07 20:11 | 48.34518 | 12.76822 | 11518 ft | 308 kts | 169° |
| 2026-05-07 20:11 | 48.32435 | 12.77588 | 11157 ft | 306 kts | 169° |
| 2026-05-07 20:12 | 48.30367 | 12.78346 | 10793 ft | 304 kts | 169° |
| 2026-05-07 20:12 | 48.28348 | 12.79086 | 10428 ft | 299 kts | 170° |
| 2026-05-07 20:12 | 48.26332 | 12.79823 | 10067 ft | 294 kts | 169° |
| 2026-05-07 20:12 | 48.24363 | 12.80541 | 9718 ft | 289 kts | 169° |
| 2026-05-07 20:13 | 48.22408 | 12.81252 | 9367 ft | 285 kts | 169° |
| 2026-05-07 20:13 | 48.20498 | 12.81949 | 9027 ft | 282 kts | 169° |
| 2026-05-07 20:13 | 48.18592 | 12.82595 | 8678 ft | 278 kts | 173° |
| 2026-05-07 20:13 | 48.16707 | 12.83017 | 8309 ft | 275 kts | 175° |
| 2026-05-07 20:14 | 48.14809 | 12.83400 | 7940 ft | 273 kts | 175° |
| 2026-05-07 20:14 | 48.12929 | 12.83775 | 7588 ft | 271 kts | 175° |
| 2026-05-07 20:14 | 48.11062 | 12.84141 | 7255 ft | 269 kts | 175° |
| 2026-05-07 20:14 | 48.09233 | 12.84491 | 6931 ft | 267 kts | 175° |
| 2026-05-07 20:15 | 48.07393 | 12.84839 | 6633 ft | 265 kts | 175° |
| 2026-05-07 20:15 | 48.05555 | 12.85183 | 6350 ft | 262 kts | 175° |
| 2026-05-07 20:15 | 48.03772 | 12.85572 | 6069 ft | 260 kts | 171° |
| 2026-05-07 20:15 | 48.02011 | 12.86139 | 5808 ft | 257 kts | 170° |
| 2026-05-07 20:16 | 48.00248 | 12.86591 | 5548 ft | 254 kts | 171° |
| 2026-05-07 20:16 | 47.98611 | 12.87548 | 5326 ft | 250 kts | 149° |
| 2026-05-07 20:16 | 47.97207 | 12.88871 | 5030 ft | 229 kts | 153° |
| 2026-05-07 20:16 | 47.95816 | 12.89841 | 4662 ft | 212 kts | 158° |
| 2026-05-07 20:17 | 47.94481 | 12.90720 | 4445 ft | 208 kts | 158° |
| 2026-05-07 20:17 | 47.93148 | 12.91591 | 4237 ft | 206 kts | 158° |
| 2026-05-07 20:17 | 47.91872 | 12.92415 | 3908 ft | 197 kts | 157° |
| 2026-05-07 20:17 | 47.90638 | 12.93208 | 3663 ft | 188 kts | 157° |
| 2026-05-07 20:18 | 47.89473 | 12.93951 | 3378 ft | 181 kts | 157° |
| 2026-05-07 20:18 | 47.88439 | 12.94608 | 3144 ft | 173 kts | 157° |
| 2026-05-07 20:18 | 47.87371 | 12.95289 | 2882 ft | 158 kts | 157° |
| 2026-05-07 20:18 | 47.86472 | 12.95859 | 2679 ft | 146 kts | 157° |
| 2026-05-07 20:19 | 47.85530 | 12.96456 | 2516 ft | 140 kts | 158° |
| 2026-05-07 20:19 | 47.84628 | 12.97020 | 2356 ft | 141 kts | 158° |
| 2026-05-07 20:19 | 47.83731 | 12.97608 | 2196 ft | 140 kts | 158° |
| 2026-05-07 20:19 | 47.82831 | 12.98167 | 2018 ft | 139 kts | 158° |
| 2026-05-07 20:20 | 47.81939 | 12.98735 | 1807 ft | 137 kts | 158° |
| 2026-05-07 20:20 | 47.81068 | 12.99293 | 1609 ft | 138 kts | 158° |
| 2026-05-07 20:20 | 47.80186 | 12.99856 | 1447 ft | 137 kts | 158° |
| 2026-05-07 20:20 | 47.79401 | 13.00352 | 1423 ft | 95 kts | 158° |
| 2026-05-07 20:21 | 47.78904 | 13.00665 | 1422 ft | 63 kts | 157° |
| 2026-05-07 20:21 | 47.78633 | 13.00839 | 1420 ft | 21 kts | 157° |
| 2026-05-07 20:21 | 47.78554 | 13.00812 | 1420 ft | 10 kts | 245° |
| 2026-05-07 20:21 | 47.78531 | 13.00728 | 1421 ft | 7 kts | 250° |
| 2026-05-07 20:22 | 47.78525 | 13.00665 | 1421 ft | 5 kts | 284° |
| 2026-05-07 20:22 | 47.78553 | 13.00619 | 1421 ft | 9 kts | 335° |
| 2026-05-07 20:22 | 47.78606 | 13.00586 | 1421 ft | 7 kts | 337° |
| 2026-05-07 20:22 | 47.78658 | 13.00553 | 1421 ft | 8 kts | 337° |
| 2026-05-07 20:23 | 47.78720 | 13.00513 | 1422 ft | 10 kts | 336° |
| 2026-05-07 20:23 | 47.78794 | 13.00467 | 1422 ft | 11 kts | 336° |
| 2026-05-07 20:23 | 47.78871 | 13.00418 | 1422 ft | 11 kts | 337° |
| 2026-05-07 20:23 | 47.78936 | 13.00374 | 1423 ft | 8 kts | 321° |
| 2026-05-07 20:24 | 47.78952 | 13.00282 | 1423 ft | 10 kts | 271° |
| 2026-05-07 20:24 | 47.78957 | 13.00184 | 1423 ft | 8 kts | 281° |
| 2026-05-07 20:24 | 47.78998 | 13.00127 | 1424 ft | 8 kts | 336° |
| 2026-05-07 20:24 | 47.79059 | 13.00087 | 1424 ft | 10 kts | 337° |
| 2026-05-07 20:25 | 47.79127 | 13.00044 | 1424 ft | 9 kts | 336° |
| 2026-05-07 20:25 | 47.79155 | 12.99969 | 1424 ft | 8 kts | 281° |
| 2026-05-07 20:25 | 47.79165 | 12.99902 | 1426 ft | 5 kts | 282° |
| 2026-05-07 20:25 | 47.79169 | 12.99872 | 1426 ft | 1 kts | 281° |
| 2026-05-07 20:26 | 47.79170 | 12.99865 | 1426 ft | 0 kts | 281° |